Time;durP1;ratioP1;P1;durP2;ratioP2;P2;SDS_P1;SDS_P2;PMS_P1;PMS_P2;Temp;Humidity;BMP_temperature;BMP_pressure;BME280_temperature;BME280_humidity;BME280_pressure;Samples;Min_cycle;Max_cycle;Signal;HPM_P1;HPM_P2
2020/12/01 00:00:25;;;;;;;58.00;29.35;;;;;;;0.18;82.21;100839.34;1724112;83;21267;-74
2020/12/01 00:02:53;;;;;;;56.35;28.77;;;;;;;0.17;82.22;100834.59;1724508;82;21191;-74
2020/12/01 00:05:21;;;;;;;57.05;28.90;;;;;;;0.18;82.24;100828.86;1725633;82;21214;-74
2020/12/01 00:07:47;;;;;;;59.90;28.70;;;;;;;0.19;82.24;100818.29;1726092;82;21150;-74
2020/12/01 00:10:15;;;;;;;57.20;28.83;;;;;;;0.18;82.27;100822.30;1726066;83;21636;-74
2020/12/01 00:12:43;;;;;;;48.08;26.00;;;;;;;0.17;82.27;100818.02;1725939;83;21737;-73
2020/12/01 00:15:10;;;;;;;52.62;27.32;;;;;;;0.15;82.29;100818.09;1725658;82;21600;-73
2020/12/01 00:17:37;;;;;;;53.55;24.72;;;;;;;0.14;82.28;100820.33;1703166;83;21204;-74
2020/12/01 00:20:06;;;;;;;49.20;26.02;;;;;;;0.14;82.28;100817.71;1723604;82;21588;-74
2020/12/01 00:22:33;;;;;;;46.63;23.65;;;;;;;0.15;82.29;100816.78;1720697;83;21211;-73
2020/12/01 00:24:59;;;;;;;54.80;27.82;;;;;;;0.18;82.30;100819.68;1720865;83;21231;-73
2020/12/01 00:27:25;;;;;;;57.35;27.60;;;;;;;0.23;82.32;100821.10;1721358;83;21163;-73
2020/12/01 00:29:51;;;;;;;54.00;29.35;;;;;;;0.22;82.32;100815.48;1721653;83;21638;-73
2020/12/01 00:32:18;;;;;;;53.20;29.02;;;;;;;0.20;82.34;100813.42;1721430;83;21553;-73
2020/12/01 00:34:44;;;;;;;61.73;32.33;;;;;;;0.21;82.35;100815.09;1721563;83;21850;-73
2020/12/01 00:37:10;;;;;;;52.70;28.10;;;;;;;0.22;82.35;100819.87;1721340;83;21195;-74
2020/12/01 00:39:37;;;;;;;60.92;29.10;;;;;;;0.22;82.37;100810.23;1721435;83;21147;-74
2020/12/01 00:42:03;;;;;;;51.13;24.80;;;;;;;0.22;82.35;100806.30;1720569;83;21183;-74
2020/12/01 00:44:29;;;;;;;54.80;27.60;;;;;;;0.23;82.39;100807.99;1721172;83;21226;-74
2020/12/01 00:46:56;;;;;;;56.40;29.15;;;;;;;0.25;82.39;100804.80;1720957;83;21133;-74
2020/12/01 00:49:22;;;;;;;59.35;30.20;;;;;;;0.26;82.42;100805.64;1721442;83;22139;-74
2020/12/01 00:51:49;;;;;;;55.90;29.07;;;;;;;0.26;82.43;100797.31;1721457;83;21680;-74
2020/12/01 00:54:16;;;;;;;50.33;28.45;;;;;;;0.26;82.43;100796.00;1721500;83;21152;-74
2020/12/01 00:56:43;;;;;;;51.85;26.80;;;;;;;0.25;82.41;100786.44;1722781;83;21175;-73
2020/12/01 00:59:09;;;;;;;55.92;29.02;;;;;;;0.24;82.42;100790.02;1725937;83;21154;-74
2020/12/01 01:01:35;;;;;;;44.10;23.47;;;;;;;0.25;82.43;100791.67;1725800;83;21239;-73
2020/12/01 01:04:02;;;;;;;44.18;24.37;;;;;;;0.25;82.43;100789.05;1725836;82;21183;-73
2020/12/01 01:06:28;;;;;;;49.40;26.87;;;;;;;0.25;82.43;100786.44;1725945;83;21107;-74
2020/12/01 01:08:54;;;;;;;52.67;24.70;;;;;;;0.26;82.43;100780.26;1726031;83;21167;-74
2020/12/01 01:11:29;;;;;;;56.80;28.17;;;;;;;0.29;82.43;100775.28;1725253;83;21219;-73
2020/12/01 01:14:09;;;;;;;54.53;27.87;;;;;;;0.32;82.45;100776.41;1814160;77;22727;-73
2020/12/01 01:16:41;;;;;;;50.63;26.70;;;;;;;0.26;82.45;100767.15;1784843;80;21105;-74
2020/12/01 01:19:09;;;;;;;78.47;30.82;;;;;;;0.26;82.45;100768.46;1780594;80;21480;-74
2020/12/01 01:21:40;;;;;;;55.10;26.87;;;;;;;0.25;82.45;100769.39;1783688;80;21152;-73
2020/12/01 01:24:06;;;;;;;47.88;25.32;;;;;;;0.25;82.45;100760.20;1773486;80;21185;-73
2020/12/01 01:26:32;;;;;;;55.25;26.15;;;;;;;0.25;82.46;100754.96;1772156;80;21234;-73
2020/12/01 01:28:59;;;;;;;44.20;22.95;;;;;;;0.26;82.45;100750.10;1772351;81;21925;-73
2020/12/01 01:31:27;;;;;;;45.58;23.40;;;;;;;0.29;82.45;100756.46;1772529;81;21267;-73
2020/12/01 01:33:53;;;;;;;47.88;25.95;;;;;;;0.31;82.42;100754.60;1772477;81;22285;-73
2020/12/01 01:36:19;;;;;;;52.50;27.25;;;;;;;0.31;82.43;100750.67;1782292;80;21136;-73
2020/12/01 01:38:46;;;;;;;56.95;29.20;;;;;;;0.31;82.43;100754.60;1783772;80;21101;-73
2020/12/01 01:41:12;;;;;;;50.40;26.55;;;;;;;0.30;82.43;100750.28;1783165;80;21609;-73
2020/12/01 01:43:38;;;;;;;48.15;26.05;;;;;;;0.30;82.44;100745.50;1783642;80;21136;-73
2020/12/01 01:46:39;;;;;;;50.40;26.60;;;;;;;0.30;82.43;100745.04;1783753;80;21211;-73
2020/12/01 01:49:09;;;;;;;47.48;23.83;;;;;;;0.31;82.46;100736.24;1687800;84;21604;-73
2020/12/01 01:51:35;;;;;;;;;;;;;;;0.32;82.44;100733.97;1690435;85;21180;-74
2020/12/01 01:54:01;;;;;;;53.87;26.93;;;;;;;0.32;82.45;100736.59;1730943;80;20242;-74
2020/12/01 01:56:30;;;;;;;54.80;27.60;;;;;;;0.33;82.45;100738.29;1783541;79;21293;-73
2020/12/01 01:58:57;;;;;;;47.13;26.45;;;;;;;0.35;82.42;100741.64;1779909;80;22012;-73
2020/12/01 02:01:25;;;;;;;53.60;24.57;;;;;;;0.34;82.44;100735.20;1753128;80;21135;-73
2020/12/01 02:03:54;;;;;;;53.95;27.52;;;;;;;0.36;82.42;100734.16;1756140;80;21552;-73
2020/12/01 02:06:40;;;;;;;52.73;27.25;;;;;;;0.34;82.43;100730.80;1756743;81;21134;-73
2020/12/01 02:09:34;;;;;;;48.20;22.62;;;;;;;0.33;82.43;100729.11;1756768;81;21201;-72
2020/12/01 02:12:01;;;;;;;41.63;22.27;;;;;;;0.33;82.43;100717.77;1756590;80;21636;-72
2020/12/01 02:15:00;;;;;;;44.77;23.07;;;;;;;0.31;82.40;100717.88;1756457;81;21123;-72
2020/12/01 02:17:30;;;;;;;42.63;23.47;;;;;;;0.30;82.40;100720.12;1756870;81;21198;-72
2020/12/01 02:20:09;;;;;;;51.53;26.42;;;;;;;0.33;82.41;100718.62;1756623;81;21166;-73
2020/12/01 02:22:36;;;;;;;44.95;25.92;;;;;;;0.35;82.40;100717.22;1756432;81;21205;-73
2020/12/01 02:25:02;;;;;;;41.92;24.50;;;;;;;0.34;82.40;100715.06;1755553;81;21611;-73
2020/12/01 02:27:29;;;;;;;46.05;25.62;;;;;;;0.34;82.41;100705.88;1754590;81;21596;-73
2020/12/01 02:29:57;;;;;;;45.80;24.60;;;;;;;0.36;82.41;100704.45;1753584;81;21128;-73
2020/12/01 02:32:26;;;;;;;50.38;25.60;;;;;;;0.34;82.40;100696.70;1752005;81;21576;-73
2020/12/01 02:34:54;;;;;;;46.68;26.17;;;;;;;0.35;82.39;100697.05;1752018;81;22118;-72
2020/12/01 02:37:23;;;;;;;43.80;23.22;;;;;;;0.33;82.41;100694.16;1751986;81;21184;-73
2020/12/01 02:39:50;;;;;;;44.73;23.70;;;;;;;0.33;82.41;100691.55;1752120;81;21146;-73
2020/12/01 02:42:23;;;;;;;48.20;24.32;;;;;;;0.31;82.40;100692.97;1751964;81;21167;-73
2020/12/01 02:44:51;;;;;;;41.33;21.62;;;;;;;0.33;82.39;100696.33;1751923;81;21529;-73
2020/12/01 02:47:17;;;;;;;50.55;26.48;;;;;;;0.34;82.40;100684.91;1752003;81;21207;-73
2020/12/01 02:49:44;;;;;;;47.00;25.50;;;;;;;0.35;82.40;100689.19;1751941;81;21140;-73
2020/12/01 02:52:10;;;;;;;46.30;24.72;;;;;;;0.33;82.39;100693.70;1752006;81;21670;-73
2020/12/01 02:54:36;;;;;;;60.38;28.95;;;;;;;0.35;82.39;100696.23;1751921;81;21146;-73
2020/12/01 02:57:03;;;;;;;53.00;27.32;;;;;;;0.35;82.39;100700.98;1751964;81;21192;-73
2020/12/01 02:59:29;;;;;;;64.65;31.05;;;;;;;0.37;82.41;100700.44;1744038;81;21150;-73
2020/12/01 03:01:56;;;;;;;67.15;32.50;;;;;;;0.38;82.40;100700.81;1741096;82;21169;-73
2020/12/01 03:04:22;;;;;;;48.38;26.33;;;;;;;0.36;82.39;100698.75;1741081;82;21149;-73
2020/12/01 03:06:49;;;;;;;40.78;22.32;;;;;;;0.35;82.39;100697.05;1740938;82;21158;-73
2020/12/01 03:09:17;;;;;;;41.10;22.27;;;;;;;0.36;82.38;100700.52;1741279;82;21547;-73
2020/12/01 03:11:43;;;;;;;41.68;22.07;;;;;;;0.33;82.36;100696.33;1741075;82;21206;-73
2020/12/01 03:14:10;;;;;;;48.05;23.05;;;;;;;0.34;82.37;100696.70;1744941;81;21225;-73
2020/12/01 03:16:36;;;;;;;44.27;24.60;;;;;;;0.35;82.38;100698.36;1746637;81;21182;-73
2020/12/01 03:19:03;;;;;;;49.95;25.45;;;;;;;0.35;82.37;100690.49;1746871;81;21184;-73
2020/12/01 03:21:29;;;;;;;44.35;24.90;;;;;;;0.36;82.38;100697.44;1746885;82;21134;-73
2020/12/01 03:23:55;;;;;;;48.45;24.92;;;;;;;0.35;82.37;100700.98;1747002;82;21183;-73
2020/12/01 03:26:22;;;;;;;43.50;24.67;;;;;;;0.36;82.37;100701.83;1746820;81;21761;-73
2020/12/01 03:28:48;;;;;;;42.93;23.45;;;;;;;0.31;82.38;100695.59;1746691;82;21166;-73
2020/12/01 03:31:17;;;;;;;47.35;23.87;;;;;;;0.28;82.40;100697.56;1746935;81;21163;-73
2020/12/01 03:33:44;;;;;;;45.47;23.50;;;;;;;0.23;82.37;100696.53;1746813;82;21142;-73
2020/12/01 03:36:10;;;;;;;45.35;23.60;;;;;;;0.20;82.38;100694.11;1746940;82;21213;-73
2020/12/01 03:38:36;;;;;;;42.90;21.42;;;;;;;0.17;82.39;100698.25;1746664;82;21238;-73
2020/12/01 03:41:03;;;;;;;42.38;20.40;;;;;;;0.11;82.37;100694.67;1746935;82;21166;-73
2020/12/01 03:43:29;;;;;;;43.38;22.82;;;;;;;0.09;82.37;100696.56;1746971;81;21137;-73
2020/12/01 03:45:56;;;;;;;44.98;23.65;;;;;;;0.04;82.35;100696.00;1746625;82;21157;-73
2020/12/01 03:48:22;;;;;;;48.83;25.37;;;;;;;0.02;82.37;100696.58;1746869;81;21196;-72
2020/12/01 03:50:48;;;;;;;42.53;22.77;;;;;;;-0.02;82.38;100688.52;1746587;82;21193;-72
2020/12/01 03:53:15;;;;;;;46.58;24.77;;;;;;;-0.06;82.37;100686.56;1747051;82;21114;-73
2020/12/01 03:55:41;;;;;;;61.48;27.05;;;;;;;-0.09;82.39;100684.59;1746838;82;21173;-73
2020/12/01 03:58:07;;;;;;;47.08;23.85;;;;;;;-0.14;82.41;100684.06;1743704;82;21561;-73
2020/12/01 04:00:33;;;;;;;43.80;22.58;;;;;;;-0.17;82.42;100685.07;1752011;80;21196;-73
2020/12/01 04:03:00;;;;;;;40.98;20.92;;;;;;;-0.22;82.42;100677.98;1780267;80;21151;-73
2020/12/01 04:05:27;;;;;;;40.10;21.40;;;;;;;-0.24;82.44;100675.06;1780596;80;21155;-73
2020/12/01 04:07:55;;;;;;;39.60;21.05;;;;;;;-0.27;82.43;100677.87;1780510;79;21115;-73
2020/12/01 04:10:24;;;;;;;41.00;20.48;;;;;;;-0.30;82.45;100671.52;1780363;79;21211;-73
2020/12/01 04:12:51;;;;;;;;;;;;;;;-0.33;82.45;100670.39;1782902;80;22219;-73
2020/12/01 04:15:18;;;;;;;46.70;23.02;;;;;;;-0.34;82.44;100673.95;1776652;79;20269;-73
2020/12/01 04:17:46;;;;;;;42.70;22.75;;;;;;;-0.38;82.47;100677.68;1776854;80;21111;-73
2020/12/01 04:20:13;;;;;;;50.17;25.43;;;;;;;-0.41;82.47;100676.10;1776640;80;21146;-73
2020/12/01 04:22:39;;;;;;;45.85;23.67;;;;;;;-0.42;82.48;100676.22;1776860;80;21140;-73
2020/12/01 04:25:08;;;;;;;43.73;24.15;;;;;;;-0.46;82.48;100678.64;1776434;80;21190;-73
2020/12/01 04:27:35;;;;;;;43.65;21.90;;;;;;;-0.48;82.48;100673.95;1776726;80;21631;-73
2020/12/01 04:30:06;;;;;;;45.33;23.10;;;;;;;-0.53;82.49;100675.06;1776782;80;21544;-73
2020/12/01 04:32:32;;;;;;;46.95;27.58;;;;;;;-0.55;82.52;100670.39;1776665;79;21229;-73
2020/12/01 04:34:58;;;;;;;46.00;26.77;;;;;;;-0.59;82.52;100670.20;1776873;79;21159;-73
2020/12/01 04:37:25;;;;;;;51.05;25.68;;;;;;;-0.62;82.55;100675.62;1776630;80;22097;-73
2020/12/01 04:39:51;;;;;;;45.88;23.90;;;;;;;-0.63;82.55;100676.55;1776768;80;21179;-73
2020/12/01 04:42:18;;;;;;;44.90;23.73;;;;;;;-0.62;82.54;100671.70;1776749;80;21162;-73
2020/12/01 04:45:07;;;;;;;43.85;23.18;;;;;;;-0.63;82.55;100668.70;1776849;80;21127;-73
2020/12/01 04:48:02;;;;;;;47.20;25.37;;;;;;;-0.61;82.54;100667.31;1776720;79;21143;-73
2020/12/01 04:50:38;;;;;;;45.90;23.92;;;;;;;-0.61;82.57;100655.06;1776159;80;21212;-73
2020/12/01 04:53:22;;;;;;;46.98;21.80;;;;;;;-0.63;82.59;100655.61;1776797;80;21139;-73
2020/12/01 04:56:37;;;;;;;46.15;22.17;;;;;;;-0.64;82.61;100654.41;1776693;80;21131;-73
2020/12/01 04:59:36;;;;;;;42.03;22.10;;;;;;;-0.63;82.60;100656.06;1764997;80;21596;-73
2020/12/01 05:02:32;;;;;;;42.13;21.20;;;;;;;-0.62;82.62;100659.91;1755918;80;21284;-73
2020/12/01 05:05:37;;;;;;;43.55;22.50;;;;;;;-0.62;82.61;100671.70;1755684;81;21195;-72
2020/12/01 05:08:31;;;;;;;35.88;19.23;;;;;;;-0.60;82.62;100667.20;1754696;80;21603;-73
2020/12/01 05:11:07;;;;;;;244.25;125.58;;;;;;;-0.54;82.65;100669.94;1755902;81;21687;-73
2020/12/01 05:13:34;;;;;;;322.95;154.75;;;;;;;-0.47;82.64;100671.24;1755581;81;21139;-73
2020/12/01 05:16:18;;;;;;;109.25;49.75;;;;;;;-0.45;82.63;100673.29;1755824;81;21612;-72
2020/12/01 05:18:44;;;;;;;230.18;101.15;;;;;;;-0.42;82.64;100677.52;1755228;81;22028;-72
2020/12/01 05:21:10;;;;;;;92.75;44.95;;;;;;;-0.38;82.67;100669.83;1755652;81;21643;-73
2020/12/01 05:23:40;;;;;;;473.25;243.48;;;;;;;-0.36;82.66;100667.97;1755753;81;21202;-72
2020/12/01 05:26:09;;;;;;;;;;;;;;;-0.36;82.67;100657.49;1758530;81;21154;-72
2020/12/01 05:28:49;;;;;;;130.10;61.08;;;;;;;-0.34;82.65;100666.08;1756003;81;20266;-72
2020/12/01 05:31:17;;;;;;;;;;;;;;;-0.32;82.67;100661.61;1753347;81;21235;-72
2020/12/01 05:33:43;;;;;;;161.82;59.83;;;;;;;-0.28;82.68;100659.18;1718787;83;20593;-73
2020/12/01 05:36:26;;;;;;;262.72;94.58;;;;;;;-0.26;82.67;100659.91;1693469;84;21168;-73
2020/12/01 05:39:15;;;;;;;151.87;56.63;;;;;;;-0.24;82.69;100657.56;1693011;84;21629;-73
2020/12/01 05:41:43;;;;;;;274.30;90.87;;;;;;;-0.20;82.67;100667.38;1693575;84;21219;-73
2020/12/01 05:44:22;;;;;;;213.20;72.15;;;;;;;-0.18;82.67;100669.46;1719036;83;21156;-73
2020/12/01 05:47:02;;;;;;;295.52;91.90;;;;;;;-0.16;82.66;100672.81;1718807;83;21145;-73
2020/12/01 05:49:45;;;;;;;200.18;64.70;;;;;;;-0.16;82.66;100674.97;1719075;83;21153;-73
2020/12/01 05:52:23;;;;;;;130.18;47.50;;;;;;;-0.13;82.66;100679.17;1718993;83;21140;-73
2020/12/01 05:55:13;;;;;;;73.62;30.88;;;;;;;-0.11;82.68;100686.48;1719114;83;21180;-73
2020/12/01 05:57:39;;;;;;;53.20;24.98;;;;;;;-0.07;82.67;100687.98;1719247;83;22233;-73
2020/12/01 06:00:22;;;;;;;47.58;23.47;;;;;;;-0.06;82.65;100683.09;1655419;83;21613;-73
2020/12/01 06:03:11;;;;;;;43.83;20.95;;;;;;;-0.03;82.66;100684.20;1733722;81;21241;-73
2020/12/01 06:05:38;;;;;;;39.88;19.35;;;;;;;0.01;82.65;100688.33;1739188;81;21190;-73
2020/12/01 06:08:10;;;;;;;37.58;21.55;;;;;;;0.03;82.62;100696.95;1713080;81;21135;-73
2020/12/01 06:11:06;;;;;;;46.42;23.87;;;;;;;0.10;82.64;100687.77;1811026;78;22740;-73
2020/12/01 06:13:41;;;;;;;43.48;20.45;;;;;;;0.06;82.61;100688.90;1796624;79;21199;-73
2020/12/01 06:16:18;;;;;;;40.43;21.27;;;;;;;0.06;82.61;100686.27;1796557;78;21268;-73
2020/12/01 06:19:16;;;;;;;39.95;20.30;;;;;;;0.09;82.60;100697.03;1789983;79;21029;-73
2020/12/01 06:22:12;;;;;;;47.00;23.75;;;;;;;0.09;82.57;100697.03;1796631;79;21223;-73
2020/12/01 06:25:29;;;;;;;42.17;20.37;;;;;;;0.09;82.55;100699.19;1796299;78;21183;-73
2020/12/01 06:28:24;;;;;;;51.40;23.85;;;;;;;0.08;82.54;100689.62;1796167;79;21167;-73
2020/12/01 06:31:19;;;;;;;65.05;26.52;;;;;;;0.09;82.53;100692.62;1794699;79;21616;-73
2020/12/01 06:34:25;;;;;;;106.25;38.73;;;;;;;0.10;82.53;100691.70;1782344;79;21581;-73
2020/12/01 06:37:09;;;;;;;58.98;25.05;;;;;;;0.11;82.48;100686.81;1765326;81;21147;-73
2020/12/01 06:39:49;;;;;;;106.63;38.60;;;;;;;0.13;82.48;100695.44;1779577;79;21160;-74
2020/12/01 06:42:29;;;;;;;63.15;25.92;;;;;;;0.11;82.46;100688.12;1773595;79;21113;-73
2020/12/01 06:44:59;;;;;;;114.85;38.48;;;;;;;0.10;82.45;100693.02;1774475;79;21275;-71
2020/12/01 06:47:31;;;;;;;84.90;32.70;;;;;;;0.10;82.44;100686.45;1733390;81;21167;-72
2020/12/01 06:50:02;;;;;;;70.60;29.90;;;;;;;0.10;82.41;100687.77;1764646;81;21209;-72
2020/12/01 06:52:29;;;;;;;124.47;41.95;;;;;;;0.12;82.39;100685.88;1763119;80;21140;-72
2020/12/01 06:54:57;;;;;;;129.32;43.83;;;;;;;0.16;82.37;100691.31;1764552;81;21572;-72
2020/12/01 06:57:31;;;;;;;255.35;82.37;;;;;;;0.17;82.37;100687.76;1764799;81;21203;-71
2020/12/01 06:59:57;;;;;;;212.48;72.35;;;;;;;0.18;82.36;100692.50;1765057;81;21163;-72
2020/12/01 07:02:28;;;;;;;125.80;48.68;;;;;;;0.19;82.35;100692.42;1765013;79;21141;-72
2020/12/01 07:05:15;;;;;;;94.03;37.38;;;;;;;0.23;82.32;100692.60;1765115;81;21597;-71
2020/12/01 07:07:44;;;;;;;115.30;44.88;;;;;;;0.25;82.30;100694.64;1762578;79;21137;-72
2020/12/01 07:10:25;;;;;;;52.23;24.52;;;;;;;0.24;82.30;100698.23;1760337;80;21217;-72
2020/12/01 07:13:04;;;;;;;99.40;40.92;;;;;;;0.27;82.29;100705.90;1756942;81;21181;-72
2020/12/01 07:15:48;;;;;;;64.05;29.27;;;;;;;0.27;82.27;100705.90;1757184;81;21173;-71
2020/12/01 07:18:25;;;;;;;63.30;27.25;;;;;;;0.30;82.24;100704.86;1757134;81;21125;-72
2020/12/01 07:21:06;;;;;;;74.50;36.83;;;;;;;0.35;82.23;100710.17;1756839;81;21177;-72
2020/12/01 07:23:42;;;;;;;72.25;34.20;;;;;;;0.36;82.22;100714.48;1756078;81;21733;-71
2020/12/01 07:26:23;;;;;;;49.90;24.32;;;;;;;0.41;82.21;100721.61;1720885;80;21185;-71
2020/12/01 07:29:10;;;;;;;47.70;23.15;;;;;;;0.40;82.18;100725.16;1756184;80;21189;-71
2020/12/01 07:31:36;;;;;;;47.35;25.90;;;;;;;0.42;82.18;100721.95;1756466;80;21157;-72
2020/12/01 07:34:24;;;;;;;48.30;24.95;;;;;;;0.42;82.15;100718.02;1756637;81;21126;-72
2020/12/01 07:36:55;;;;;;;58.92;29.65;;;;;;;0.44;82.12;100716.16;1756486;81;21249;-72
2020/12/01 07:39:26;;;;;;;77.30;37.85;;;;;;;0.49;82.11;100710.63;1756579;81;21149;-72
2020/12/01 07:42:01;;;;;;;83.37;30.25;;;;;;;0.49;82.07;100711.44;1756350;81;21162;-72
2020/12/01 07:44:31;;;;;;;51.98;22.45;;;;;;;0.49;82.04;100707.50;1756495;81;21221;-72
2020/12/01 07:47:23;;;;;;;40.03;18.52;;;;;;;0.50;82.02;100706.58;1756619;81;21137;-72
2020/12/01 07:49:58;;;;;;;42.80;21.57;;;;;;;0.53;81.98;100706.84;1756286;81;21207;-72
2020/12/01 07:52:40;;;;;;;80.00;36.08;;;;;;;0.57;81.96;100710.11;1756387;81;21130;-71
2020/12/01 07:55:31;;;;;;;54.75;26.15;;;;;;;0.59;81.93;100720.05;1756584;81;21134;-71
2020/12/01 07:58:19;;;;;;;52.13;24.00;;;;;;;0.70;81.90;100717.58;1851503;77;22707;-72
2020/12/01 08:01:01;;;;;;;74.65;37.60;;;;;;;0.65;81.87;100722.27;1820379;78;21176;-72
2020/12/01 08:03:34;;;;;;;42.93;20.48;;;;;;;0.68;81.85;100731.25;1790985;78;21845;-72
2020/12/01 08:06:14;;;;;;;53.28;23.73;;;;;;;0.79;81.83;100728.78;1810487;78;23323;-71
2020/12/01 08:08:44;;;;;;;55.33;24.92;;;;;;;0.81;81.81;100730.85;1796766;79;21175;-71
2020/12/01 08:11:16;;;;;;;53.92;25.30;;;;;;;0.80;81.76;100733.09;1796611;79;21263;-71
2020/12/01 08:13:43;;;;;;;63.23;27.65;;;;;;;0.82;81.76;100736.45;1796703;79;21218;-71
2020/12/01 08:16:16;;;;;;;110.83;40.17;;;;;;;0.89;81.72;100745.61;1796683;79;21155;-72
2020/12/01 08:18:44;;;;;;;90.72;33.38;;;;;;;0.94;81.67;100746.16;1796582;79;21238;-72
2020/12/01 08:21:10;;;;;;;162.05;60.45;;;;;;;0.94;81.62;100751.42;1796681;79;21155;-71
2020/12/01 08:23:36;;;;;;;49.60;23.38;;;;;;;0.98;81.61;100752.91;1796760;79;21204;-73
2020/12/01 08:26:11;;;;;;;46.98;20.50;;;;;;;1.02;81.58;100762.27;1796845;79;21623;-72
2020/12/01 08:28:42;;;;;;;85.17;39.20;;;;;;;1.07;81.54;100764.11;1796255;79;21164;-72
2020/12/01 08:31:59;;;;;;;39.48;19.10;;;;;;;1.13;81.52;100757.12;1796731;79;21604;-72
2020/12/01 08:34:46;;;;;;;37.35;19.15;;;;;;;1.21;81.48;100749.59;1796722;79;21143;-72
2020/12/01 08:37:54;;;;;;;40.60;20.82;;;;;;;1.20;81.44;100755.78;1796440;79;21243;-72
2020/12/01 08:40:59;;;;;;;33.65;19.37;;;;;;;1.26;81.41;100763.74;1791085;79;21561;-72
2020/12/01 08:43:55;;;;;;;38.95;22.95;;;;;;;1.28;81.37;100768.41;1765268;81;21142;-72
2020/12/01 08:46:23;;;;;;;92.53;53.13;;;;;;;1.28;81.34;100765.31;1763412;80;21138;-72
2020/12/01 08:48:53;;;;;;;80.12;40.28;;;;;;;1.27;81.29;100764.09;1765221;81;21177;-72
2020/12/01 08:51:25;;;;;;;55.12;25.60;;;;;;;1.24;81.25;100770.40;1765179;81;21254;-72
2020/12/01 08:53:59;;;;;;;62.65;30.50;;;;;;;1.27;81.22;100770.19;1764665;81;21259;-72
2020/12/01 08:56:41;;;;;;;77.25;34.00;;;;;;;1.31;81.20;100772.98;1777206;79;21645;-72
2020/12/01 08:59:07;;;;;;;58.15;32.63;;;;;;;1.44;81.17;100773.03;1786978;78;21175;-72
2020/12/01 09:01:41;;;;;;;54.18;27.07;;;;;;;1.51;81.12;100768.55;1728666;79;21220;-72
2020/12/01 09:04:22;;;;;;;51.37;25.37;;;;;;;1.56;81.07;100773.50;1763717;80;21234;-72
2020/12/01 09:06:48;;;;;;;30.82;17.02;;;;;;;1.59;81.01;100780.33;1754616;80;21687;-73
2020/12/01 09:09:22;;;;;;;32.83;17.75;;;;;;;1.57;80.95;100779.61;1761180;80;21211;-72
2020/12/01 09:23:18;;;;;;;51.35;25.57;;;;;;;1.82;80.61;100787.05;1762751;80;21911;-72
2020/12/01 09:25:45;;;;;;;;;;;;;;;1.88;80.55;100781.83;1763039;80;21589;-73
2020/12/01 09:28:22;;;;;;;63.75;25.90;;;;;;;1.88;80.47;100787.09;1757138;80;20284;-73
2020/12/01 09:30:48;;;;;;;58.63;26.27;;;;;;;1.91;80.44;100781.61;1755482;80;21324;-72
2020/12/01 09:33:19;;;;;;;70.57;30.57;;;;;;;2.00;80.40;100789.73;1751839;81;21176;-73
2020/12/01 09:35:45;;;;;;;36.42;18.90;;;;;;;2.09;80.38;100790.88;1730410;82;21568;-73
2020/12/01 09:38:11;;;;;;;47.35;24.07;;;;;;;2.11;80.33;100782.88;1698819;82;21715;-72
2020/12/01 09:40:38;;;;;;;62.78;28.98;;;;;;;2.13;80.30;100789.72;1703045;84;21215;-73
2020/12/01 09:45:51;;;;;;;62.35;31.50;;;;;;;2.34;80.23;100776.37;1811742;77;22709;-73
2020/12/01 09:50:44;;;;;;;34.30;18.23;;;;;;;2.46;80.02;100782.06;1769542;80;21556;-72
2020/12/01 09:55:59;;;;;;;51.45;24.12;;;;;;;2.53;79.88;100787.26;1767808;80;21149;-73
2020/12/01 10:09:27;;;;;;;42.33;19.95;;;;;;;2.73;79.53;100787.16;1747000;81;21639;-72
2020/12/01 10:35:45;;;;;;;289.40;91.08;;;;;;;2.81;78.65;100789.25;1722515;83;21600;-71
2020/12/01 10:38:12;;;;;;;433.20;127.80;;;;;;;2.90;78.56;100800.42;1722413;83;21183;-72
2020/12/01 10:40:39;;;;;;;453.20;133.47;;;;;;;2.92;78.53;100798.54;1722329;83;21176;-71
2020/12/01 10:43:06;;;;;;;120.33;37.25;;;;;;;2.92;78.43;100802.48;1711464;83;21206;-71
2020/12/01 10:45:33;;;;;;;384.35;109.55;;;;;;;2.97;78.37;100800.34;1704404;83;21241;-72
2020/12/01 10:47:59;;;;;;;388.82;109.80;;;;;;;3.02;78.26;100804.81;1695960;84;21163;-72
2020/12/01 10:50:28;;;;;;;74.05;27.48;;;;;;;3.03;78.17;100806.00;1695261;83;21628;-71
2020/12/01 10:52:55;;;;;;;462.02;151.82;;;;;;;3.11;78.08;100810.72;1698528;84;21176;-72
2020/12/01 10:55:26;;;;;;;425.77;133.20;;;;;;;3.18;77.96;100811.95;1721647;83;21187;-72
2020/12/01 10:57:53;;;;;;;79.55;31.57;;;;;;;3.12;77.84;100808.45;1717705;83;21188;-73
2020/12/01 11:00:20;;;;;;;44.42;23.00;;;;;;;3.06;77.72;100803.64;1716180;82;21178;-72
2020/12/01 11:02:47;;;;;;;192.22;59.40;;;;;;;3.11;77.66;100810.72;1687233;85;21695;-72
2020/12/01 11:05:17;;;;;;;373.77;122.82;;;;;;;3.06;77.54;100810.23;1714932;82;21194;-72
2020/12/01 11:07:43;;;;;;;142.28;48.92;;;;;;;2.99;77.45;100814.27;1722397;83;22621;-72
2020/12/01 11:10:09;;;;;;;76.42;30.72;;;;;;;2.97;77.37;100811.73;1730477;81;21203;-72
2020/12/01 11:12:36;;;;;;;106.60;51.05;;;;;;;2.98;77.28;100815.20;1713674;83;21561;-72
2020/12/01 11:15:03;;;;;;;65.97;46.20;;;;;;;2.99;77.24;100816.90;1689975;84;21655;-72
2020/12/01 11:17:30;;;;;;;98.50;44.67;;;;;;;3.05;77.19;100816.91;1678997;84;21213;-72
2020/12/01 11:19:56;;;;;;;376.77;249.02;;;;;;;3.15;77.16;100820.08;1681208;84;21672;-72
2020/12/01 11:22:22;;;;;;;313.12;199.97;;;;;;;3.20;77.10;100815.30;1696254;84;21211;-72
2020/12/01 11:24:48;;;;;;;62.48;31.05;;;;;;;3.25;77.02;100818.92;1672521;84;21257;-72
2020/12/01 11:27:15;;;;;;;144.10;118.90;;;;;;;3.23;76.97;100819.05;1677878;84;21168;-72
2020/12/01 11:29:41;;;;;;;58.13;40.25;;;;;;;3.17;76.90;100824.75;1701245;83;21212;-72
2020/12/01 11:32:07;;;;;;;63.73;36.45;;;;;;;3.25;76.84;100826.36;1720862;82;21278;-72
2020/12/01 11:34:34;;;;;;;156.52;84.25;;;;;;;3.23;76.73;100824.80;1687271;85;21156;-72
2020/12/01 11:37:00;;;;;;;162.37;86.22;;;;;;;3.14;76.66;100830.72;1687406;85;21638;-72
2020/12/01 11:39:26;;;;;;;45.70;22.25;;;;;;;3.18;76.62;100831.71;1687499;83;21156;-72
2020/12/01 11:41:53;;;;;;;69.58;38.65;;;;;;;3.19;76.52;100832.55;1687536;85;21573;-72
2020/12/01 11:44:19;;;;;;;50.52;28.32;;;;;;;3.16;76.49;100829.68;1687337;85;21280;-72
2020/12/01 11:46:45;;;;;;;88.33;33.88;;;;;;;3.17;76.45;100825.22;1715400;83;21202;-71
2020/12/01 11:49:11;;;;;;;40.85;20.48;;;;;;;3.19;76.40;100828.61;1703247;83;21192;-71
2020/12/01 11:51:39;;;;;;;37.23;19.52;;;;;;;3.16;76.30;100828.36;1711235;81;21587;-71
2020/12/01 11:54:07;;;;;;;43.87;20.20;;;;;;;3.12;76.24;100828.22;1691804;83;21211;-71
2020/12/01 11:56:33;;;;;;;31.93;17.65;;;;;;;3.10;76.17;100835.88;1704962;83;21220;-72
2020/12/01 11:58:59;;;;;;;58.35;34.95;;;;;;;3.06;76.11;100824.72;1684664;85;21746;-72
2020/12/01 12:01:26;;;;;;;55.90;23.67;;;;;;;3.03;76.05;100827.55;1671391;85;21635;-72
2020/12/01 12:03:52;;;;;;;42.35;18.85;;;;;;;3.01;75.99;100830.78;1704133;82;21698;-72
2020/12/01 12:06:18;;;;;;;67.82;26.97;;;;;;;3.02;75.90;100835.11;1728532;83;21200;-71
2020/12/01 12:08:45;;;;;;;89.47;31.42;;;;;;;2.98;75.83;100831.02;1681971;82;21934;-71
2020/12/01 12:11:12;;;;;;;69.15;26.20;;;;;;;2.99;75.81;100837.47;1682274;84;21457;-72
2020/12/01 12:13:38;;;;;;;66.77;28.87;;;;;;;3.03;75.76;100838.59;1682126;84;21143;-72
2020/12/01 12:16:04;;;;;;;65.10;26.55;;;;;;;3.04;75.72;100838.46;1682199;84;21207;-71
2020/12/01 12:18:31;;;;;;;48.08;21.10;;;;;;;3.04;75.66;100835.83;1681730;85;21636;-72
2020/12/01 12:20:57;;;;;;;98.85;44.42;;;;;;;2.99;75.55;100838.78;1687092;83;21275;-72
2020/12/01 12:23:24;;;;;;;70.50;30.05;;;;;;;2.97;75.48;100834.59;1700719;83;21155;-72
2020/12/01 12:25:51;;;;;;;39.25;20.12;;;;;;;2.97;75.45;100834.59;1708922;83;21238;-71
2020/12/01 12:28:17;;;;;;;37.48;18.42;;;;;;;2.92;75.34;100832.28;1685446;83;21214;-71
2020/12/01 12:30:45;;;;;;;63.48;25.75;;;;;;;2.87;75.24;100826.98;1711667;82;21124;-72